Coatzacoalcos, Mexico

3:13 PM CDT on September 17, 2014 (GMT -0500)
Minatitlan | Change Station
CLOSE
Current Station
Airport
Location: Minatitlan,
Elevation: 36 ft
Nearby Weather Stations

Elev 36 ft 18.10 °N, 94.58 °W | Updated 27 minutes ago

Mostly Cloudy
Mostly Cloudy
88 °F
Feels Like 98 °F
N
12
Wind Variable Wind from SSW

Today
High -- | Low -- °F
--% Chance of Precip.
Yesterday
High -- | Low -- °F
Precip. -- in
7:05 AM 7:18 PM
Waning Crescent, 33% visible
Pressure 29.84 in
Visibility 15.0 miles
Clouds Mostly Cloudy 2500 ft
Mostly Cloudy 12000 ft
Heat Index 98 °F
Dew Point 75 °F
Humidity 66%
Rainfall 0.00 in
Snow Depth Not available.
UV 5 out of 12
Pollen Not available.
Air Quality Not available.
Flu Activity Not available.
METAR MMMT 171946Z 21010KT 15SM BKN025 BKN120 31/24 A2984 RMK 8/130

More Conditions Fewer Conditions

Pressure 29.84 in
Visibility 15.0 miles
Clouds Mostly Cloudy 2500 ft
Mostly Cloudy 12000 ft
Heat Index 98 °F
Dew Point 75 °F
Humidity 66%
Rainfall 0.00 in
Snow Depth Not available.
UV 5 out of 12
Pollen Not available.
Air Quality Not available.
Flu Activity Not available.
METAR MMMT 171946Z 21010KT 15SM BKN025 BKN120 31/24 A2984 RMK 8/130

More Conditions Fewer Conditions

10-Day Weather Forecast

Almanac

Astronomy

Sep. 17, 2014 Rise Set
Actual Time 7:05 AM CDT 7:18 PM CDT
Civil Twilight 6:44 AM CDT 7:39 PM CDT
Nautical Twilight 6:18 AM CDT 8:05 PM CDT
Astronomical Twilight 5:53 AM CDT 8:30 PM CDT
Moon 1:41 AM CDT 2:54 PM CDT
Length of Visible Light 12h 55m
Length of Day
12h 12m
Tomorrow will be 1m 1s shorter.
Waning Crescent, 33% of the Moon is Illuminated
Today
Waning Crescent
Sep 24
New
Oct 1
First Quarter
Oct 8
Full
Oct 15
Last Quarter

Today's Extremes

Country Highs Country Lows

Community

WunderPhotos

Upload Photos

1,754,157 photos uploaded!

Nearby

Snow Depth

Not available.

Earthquake Activity

City Distance Mag. Time & Date
No recent earthquake activity has been reported nearby.
Minimum magnitude displayed is 2.5.

Coastal Water Temperatures

Place Temperature
No Stations Reporting

Nearby Weather Stations